createdAt,value
2022-10-30T00:01:04.418Z,15.15
2022-10-30T00:03:31.421Z,18.55
2022-10-30T00:05:58.379Z,18.20
2022-10-30T00:10:55.031Z,21.08
2022-10-30T00:13:22.344Z,21.77
2022-10-30T00:15:52.229Z,15.23
2022-10-30T00:18:20.311Z,17.17
2022-10-30T00:20:47.587Z,12.82
2022-10-30T00:23:14.444Z,13.38
2022-10-30T00:28:14.354Z,25.67
2022-10-30T00:33:07.909Z,17.23
2022-10-30T00:35:35.774Z,14.30
2022-10-30T00:38:02.876Z,15.30
2022-10-30T00:40:30.385Z,15.93
2022-10-30T00:42:57.314Z,12.15
2022-10-30T00:48:02.961Z,14.70
2022-10-30T00:50:34.253Z,14.25
2022-10-30T00:53:08.898Z,18.88
2022-10-30T00:55:42.476Z,11.75
2022-10-30T00:58:13.111Z,12.88
2022-10-30T01:00:43.267Z,15.00
2022-10-30T01:03:11.219Z,13.23
2022-10-30T01:05:39.342Z,16.30
2022-10-30T01:08:06.534Z,14.18
2022-10-30T01:13:01.932Z,17.27
2022-10-30T01:15:36.996Z,13.10
2022-10-30T01:18:24.335Z,17.35
2022-10-30T01:20:57.090Z,15.25
2022-10-30T01:23:50.642Z,16.35
2022-10-30T01:26:41.543Z,11.48
2022-10-30T01:29:14.294Z,17.55
2022-10-30T01:32:22.548Z,15.88
2022-10-30T01:35:02.241Z,16.10
2022-10-30T01:37:50.369Z,12.13
2022-10-30T01:42:56.552Z,16.48
2022-10-30T01:45:48.324Z,12.98
2022-10-30T01:48:18.814Z,14.60
2022-10-30T01:50:59.445Z,14.50
2022-10-30T01:53:53.455Z,15.73
2022-10-30T01:56:36.811Z,22.92
2022-10-30T01:59:36.954Z,15.07
2022-10-30T02:02:06.581Z,15.80
2022-10-30T02:04:34.346Z,14.23
2022-10-30T02:07:01.331Z,15.05
2022-10-30T02:09:28.950Z,14.10
2022-10-30T02:11:55.966Z,15.15
2022-10-30T02:14:31.337Z,14.80
2022-10-30T02:17:00.583Z,16.58
2022-10-30T02:19:27.510Z,13.88
2022-10-30T02:21:54.483Z,14.18
2022-10-30T02:24:21.520Z,16.05
2022-10-30T02:29:14.977Z,15.20
2022-10-30T02:31:42.138Z,15.65
2022-10-30T02:36:35.604Z,16.90
2022-10-30T02:39:02.636Z,14.32
2022-10-30T02:43:56.581Z,14.75
2022-10-30T02:46:23.444Z,15.80
2022-10-30T02:48:50.271Z,14.93
2022-10-30T02:51:17.533Z,17.17
2022-10-30T02:53:45.044Z,15.98
2022-10-30T02:56:13.503Z,13.88
2022-10-30T02:58:42.071Z,15.15
2022-10-30T03:01:18.005Z,15.80
2022-10-30T03:03:46.207Z,15.63
2022-10-30T03:06:15.728Z,14.05
2022-10-30T03:08:43.536Z,18.67
2022-10-30T03:11:19.182Z,16.27
2022-10-30T03:13:48.250Z,18.77
2022-10-30T03:16:18.330Z,18.23
2022-10-30T03:18:45.568Z,14.20
2022-10-30T03:21:15.757Z,16.65
2022-10-30T03:23:44.300Z,18.65
2022-10-30T03:28:47.229Z,15.43
2022-10-30T03:36:10.859Z,13.05
2022-10-30T03:38:37.878Z,17.50
2022-10-30T03:41:06.127Z,20.55
2022-10-30T03:43:33.202Z,17.05
2022-10-30T03:45:59.992Z,18.05
2022-10-30T03:48:29.330Z,17.27
2022-10-30T03:50:59.117Z,16.77
2022-10-30T03:53:28.528Z,21.80
2022-10-30T03:56:03.893Z,16.38
2022-10-30T03:58:39.924Z,17.23
2022-10-30T04:01:11.122Z,13.77
2022-10-30T04:03:41.790Z,17.98
2022-10-30T04:06:10.924Z,12.50
2022-10-30T04:08:38.062Z,12.80
2022-10-30T04:11:05.370Z,14.93
2022-10-30T04:13:32.334Z,13.65
2022-10-30T04:15:59.233Z,17.77
2022-10-30T04:18:26.718Z,14.18
2022-10-30T04:20:55.238Z,18.88
2022-10-30T04:23:22.655Z,12.63
2022-10-30T04:25:49.586Z,16.45
2022-10-30T04:28:16.490Z,12.88
2022-10-30T04:30:44.134Z,14.55
2022-10-30T04:33:13.261Z,13.02
2022-10-30T04:35:41.564Z,14.57
2022-10-30T04:38:26.279Z,15.70
2022-10-30T04:43:19.801Z,15.82
2022-10-30T04:45:50.479Z,17.15
2022-10-30T04:48:18.549Z,15.68
2022-10-30T04:50:47.271Z,15.43
2022-10-30T04:53:22.139Z,15.30
2022-10-30T04:55:56.183Z,15.05
2022-10-30T04:58:23.147Z,15.68
2022-10-30T05:01:05.256Z,13.90
2022-10-30T05:03:33.562Z,17.95
2022-10-30T05:06:13.235Z,22.08
2022-10-30T05:08:40.186Z,13.93
2022-10-30T05:11:17.867Z,12.20
2022-10-30T05:13:44.583Z,16.70
2022-10-30T05:16:11.588Z,14.38
2022-10-30T05:21:05.310Z,15.75
2022-10-30T05:26:01.888Z,13.88
2022-10-30T05:28:29.889Z,13.45
2022-10-30T05:30:58.713Z,19.55
2022-10-30T05:33:45.465Z,19.33
2022-10-30T05:36:12.255Z,14.27
2022-10-30T05:38:39.162Z,13.88
2022-10-30T05:41:09.878Z,10.30
2022-10-30T05:43:37.135Z,16.25
2022-10-30T05:46:04.012Z,17.25
2022-10-30T05:48:31.887Z,12.45
2022-10-30T05:50:58.815Z,15.73
2022-10-30T05:53:28.547Z,15.73
2022-10-30T05:55:58.093Z,15.43
2022-10-30T05:58:27.671Z,13.23
2022-10-30T06:00:56.902Z,16.38
2022-10-30T06:03:38.512Z,21.13
2022-10-30T06:06:06.440Z,16.60
2022-10-30T06:08:33.330Z,13.63
2022-10-30T06:11:05.316Z,15.38
2022-10-30T06:13:40.373Z,13.70
2022-10-30T06:16:11.639Z,13.43
2022-10-30T06:18:58.790Z,16.60
2022-10-30T06:21:26.847Z,13.80
2022-10-30T06:24:13.926Z,14.65
2022-10-30T06:26:59.272Z,13.75
2022-10-30T06:29:26.037Z,13.90
2022-10-30T06:31:53.004Z,14.20
2022-10-30T06:34:19.970Z,18.98
2022-10-30T06:39:13.759Z,16.10
2022-10-30T06:41:52.966Z,19.53
2022-10-30T06:44:45.841Z,18.40
2022-10-30T06:47:12.651Z,13.38
2022-10-30T06:52:06.477Z,18.10
2022-10-30T06:57:00.586Z,17.52
2022-10-30T06:59:50.781Z,18.45
2022-10-30T07:02:36.506Z,14.55
2022-10-30T07:05:07.623Z,18.00
2022-10-30T07:07:34.402Z,10.48
2022-10-30T07:10:01.571Z,14.68
2022-10-30T07:12:52.989Z,15.40
2022-10-30T07:18:20.190Z,15.68
2022-10-30T07:20:47.805Z,13.02
2022-10-30T07:25:41.402Z,14.05
2022-10-30T07:28:33.165Z,12.38
2022-10-30T07:31:42.412Z,13.40
2022-10-30T07:34:48.801Z,11.77
2022-10-30T07:37:29.977Z,10.70
2022-10-30T07:43:05.803Z,12.23
2022-10-30T07:45:52.443Z,11.47
2022-10-30T07:48:30.699Z,11.55
2022-10-30T07:51:20.890Z,10.82
2022-10-30T07:53:49.138Z,15.77
2022-10-30T07:56:16.313Z,16.45
2022-10-30T07:59:09.537Z,10.95
2022-10-30T08:02:01.188Z,12.13
2022-10-30T08:04:40.021Z,8.73
2022-10-30T08:07:34.513Z,11.15
2022-10-30T08:10:01.351Z,11.68
2022-10-30T08:12:28.578Z,14.68
2022-10-30T08:14:55.627Z,12.50
2022-10-30T08:17:22.364Z,14.07
2022-10-30T08:19:49.926Z,15.52
2022-10-30T08:22:17.575Z,9.88
2022-10-30T08:24:49.734Z,12.30
2022-10-30T08:27:16.595Z,10.30
2022-10-30T08:29:43.306Z,9.45
2022-10-30T08:32:10.139Z,11.73
2022-10-30T08:34:55.674Z,14.93
2022-10-30T08:37:22.504Z,11.38
2022-10-30T08:39:51.450Z,6.68
2022-10-30T08:42:36.481Z,7.57
2022-10-30T08:45:09.270Z,9.73
2022-10-30T08:48:03.383Z,8.38
2022-10-30T08:50:35.797Z,12.63
2022-10-30T08:53:04.673Z,11.95
2022-10-30T08:55:33.441Z,7.82
2022-10-30T08:58:03.332Z,11.80
2022-10-30T09:00:30.805Z,11.90
2022-10-30T09:03:12.567Z,14.43
2022-10-30T09:05:59.795Z,10.50
2022-10-30T09:08:46.686Z,11.60
2022-10-30T09:11:26.811Z,11.60
2022-10-30T09:13:53.548Z,10.77
2022-10-30T09:16:20.279Z,13.90
2022-10-30T09:18:47.114Z,12.60
2022-10-30T09:21:14.077Z,10.48
2022-10-30T09:23:45.328Z,12.02
2022-10-30T09:26:38.437Z,10.48
2022-10-30T09:29:21.384Z,11.60
2022-10-30T09:32:08.636Z,9.13
2022-10-30T09:34:41.006Z,11.43
2022-10-30T09:37:16.075Z,14.48
2022-10-30T09:39:45.811Z,10.27
2022-10-30T09:42:37.637Z,8.05
2022-10-30T09:45:36.138Z,13.77
2022-10-30T09:48:24.813Z,12.30
2022-10-30T09:51:35.558Z,10.35
2022-10-30T09:54:19.395Z,10.43
2022-10-30T09:57:01.252Z,9.93
2022-10-30T09:59:57.059Z,9.40
2022-10-30T10:02:29.802Z,10.75
2022-10-30T10:05:05.234Z,9.65
2022-10-30T10:07:52.818Z,13.45
2022-10-30T10:10:44.745Z,13.15
2022-10-30T10:13:30.486Z,12.75
2022-10-30T10:16:11.092Z,11.52
2022-10-30T10:18:55.998Z,11.38
2022-10-30T10:21:28.115Z,10.90
2022-10-30T10:23:56.914Z,10.23
2022-10-30T10:26:46.112Z,9.57
2022-10-30T10:29:25.001Z,11.90
2022-10-30T10:32:03.543Z,10.32
2022-10-30T10:34:55.244Z,9.88
2022-10-30T10:37:34.933Z,8.75
2022-10-30T10:40:31.846Z,9.75
2022-10-30T10:43:22.064Z,8.95
2022-10-30T10:46:26.715Z,10.35
2022-10-30T10:48:58.230Z,8.15
2022-10-30T10:51:52.378Z,9.68
2022-10-30T10:54:28.078Z,9.18
2022-10-30T10:56:56.675Z,8.93
2022-10-30T10:59:26.646Z,9.52
2022-10-30T11:02:03.072Z,10.18
2022-10-30T11:04:40.180Z,16.50
2022-10-30T11:07:28.485Z,12.75
2022-10-30T11:09:57.368Z,10.27
2022-10-30T11:12:33.808Z,8.68
2022-10-30T11:15:35.496Z,11.07
2022-10-30T11:18:08.314Z,10.00
2022-10-30T11:20:49.613Z,10.45
2022-10-30T11:23:43.195Z,11.07
2022-10-30T11:26:20.281Z,11.35
2022-10-30T11:28:55.727Z,7.82
2022-10-30T11:31:34.384Z,14.05
2022-10-30T11:34:28.903Z,10.57
2022-10-30T11:36:55.770Z,11.60
2022-10-30T11:39:34.884Z,7.75
2022-10-30T11:42:36.799Z,10.55
2022-10-30T11:45:04.690Z,9.02
2022-10-30T11:47:42.850Z,10.93
2022-10-30T11:50:21.096Z,12.18
2022-10-30T11:52:50.476Z,9.32
2022-10-30T11:55:22.960Z,10.93
2022-10-30T11:57:52.478Z,9.70
2022-10-30T12:00:25.323Z,8.10
2022-10-30T12:02:54.670Z,7.63
2022-10-30T12:05:27.671Z,9.25
2022-10-30T12:08:17.213Z,8.95
2022-10-30T12:10:53.424Z,12.82
2022-10-30T12:13:23.112Z,10.13
2022-10-30T12:16:04.026Z,12.10
2022-10-30T12:18:32.073Z,11.77
2022-10-30T12:20:59.567Z,11.07
2022-10-30T12:23:28.499Z,9.70
2022-10-30T12:25:58.802Z,15.60
2022-10-30T12:28:31.670Z,10.02
2022-10-30T12:31:33.978Z,11.10
2022-10-30T12:37:06.743Z,10.38
2022-10-30T12:39:54.050Z,15.50
2022-10-30T12:42:24.941Z,11.18
2022-10-30T12:45:16.388Z,10.20
2022-10-30T12:47:52.819Z,7.70
2022-10-30T12:50:25.372Z,10.52
2022-10-30T12:53:10.899Z,8.77
2022-10-30T12:55:44.319Z,10.40
2022-10-30T12:58:22.099Z,9.77
2022-10-30T13:01:26.742Z,10.57
2022-10-30T13:04:18.651Z,8.77
2022-10-30T13:06:53.171Z,10.15
2022-10-30T13:09:57.965Z,13.03
2022-10-30T13:12:41.838Z,8.23
2022-10-30T13:15:33.609Z,8.63
2022-10-30T13:18:14.617Z,7.90
2022-10-30T13:20:44.203Z,11.18
2022-10-30T13:23:16.807Z,8.57
2022-10-30T13:26:03.907Z,10.57
2022-10-30T13:28:40.725Z,10.35
2022-10-30T13:31:10.614Z,8.52
2022-10-30T13:33:55.253Z,8.40
2022-10-30T13:36:47.364Z,10.07
2022-10-30T13:39:48.309Z,11.30
2022-10-30T13:42:35.378Z,10.25
2022-10-30T13:45:13.102Z,10.23
2022-10-30T13:48:02.095Z,10.45
2022-10-30T13:50:49.715Z,12.95
2022-10-30T13:53:21.601Z,6.45
2022-10-30T13:55:50.031Z,8.10
2022-10-30T13:58:23.548Z,10.15
2022-10-30T14:00:59.563Z,8.38
2022-10-30T14:03:48.387Z,9.07
2022-10-30T14:06:24.176Z,8.75
2022-10-30T14:09:20.763Z,13.68
2022-10-30T14:11:47.803Z,9.82
2022-10-30T14:14:24.120Z,9.27
2022-10-30T14:17:15.757Z,8.90
2022-10-30T14:20:08.792Z,7.30
2022-10-30T14:22:40.732Z,12.32
2022-10-30T14:25:16.019Z,10.18
2022-10-30T14:27:43.099Z,10.02
2022-10-30T14:30:19.258Z,11.27
2022-10-30T14:32:52.940Z,9.82
2022-10-30T14:35:33.038Z,9.98
2022-10-30T14:38:22.548Z,11.32
2022-10-30T14:40:54.808Z,11.65
2022-10-30T14:43:29.273Z,9.68
2022-10-30T14:46:00.860Z,7.88
2022-10-30T14:48:32.039Z,8.30
2022-10-30T14:51:36.620Z,12.20
2022-10-30T14:54:22.893Z,8.65
2022-10-30T14:56:51.433Z,9.40
2022-10-30T14:59:18.132Z,7.15
2022-10-30T15:02:13.004Z,8.88
2022-10-30T15:05:09.957Z,8.90
2022-10-30T15:07:45.516Z,9.18
2022-10-30T15:10:18.094Z,12.38
2022-10-30T15:13:14.900Z,7.38
2022-10-30T15:15:43.084Z,8.75
2022-10-30T15:18:19.387Z,12.85
2022-10-30T15:20:52.578Z,13.85
2022-10-30T15:23:32.288Z,10.40
2022-10-30T15:26:08.088Z,9.32
2022-10-30T15:28:39.070Z,11.27
2022-10-30T15:31:27.672Z,10.98
2022-10-30T15:33:58.628Z,8.45
2022-10-30T15:36:28.815Z,12.70
2022-10-30T15:39:14.479Z,11.55
2022-10-30T15:42:02.053Z,9.40
2022-10-30T15:47:00.970Z,9.85
2022-10-30T15:49:30.369Z,11.25
2022-10-30T15:51:58.473Z,11.13
2022-10-30T15:54:27.274Z,11.43
2022-10-30T15:59:57.088Z,11.23
2022-10-30T16:02:26.884Z,12.30
2022-10-30T16:04:54.169Z,12.30
2022-10-30T16:07:28.602Z,14.65
2022-10-30T16:10:02.506Z,11.80
2022-10-30T16:12:34.322Z,14.20
2022-10-30T16:15:22.123Z,10.93
2022-10-30T16:17:53.063Z,16.17
2022-10-30T16:20:24.367Z,12.20
2022-10-30T16:22:51.164Z,16.70
2022-10-30T16:25:24.027Z,18.52
2022-10-30T16:27:51.083Z,17.30
2022-10-30T16:30:18.100Z,14.85
2022-10-30T16:32:52.750Z,16.15
2022-10-30T16:35:22.442Z,14.85
2022-10-30T16:37:50.611Z,13.93
2022-10-30T16:40:23.647Z,16.48
2022-10-30T16:43:13.072Z,17.08
2022-10-30T16:45:47.991Z,19.40
2022-10-30T16:48:28.093Z,17.02
2022-10-30T16:51:00.954Z,22.30
2022-10-30T16:53:28.726Z,27.17
2022-10-30T16:55:57.684Z,33.13
2022-10-30T16:58:27.866Z,27.48
2022-10-30T17:01:02.214Z,24.67
2022-10-30T17:03:39.080Z,22.20
2022-10-30T17:06:24.978Z,22.80
2022-10-30T17:08:54.397Z,18.90
2022-10-30T17:11:35.160Z,19.77
2022-10-30T17:14:17.231Z,18.38
2022-10-30T17:17:00.855Z,18.73
2022-10-30T17:19:30.648Z,16.38
2022-10-30T17:22:01.532Z,15.45
2022-10-30T17:24:32.851Z,18.70
2022-10-30T17:27:02.403Z,17.75
2022-10-30T17:29:45.290Z,29.38
2022-10-30T17:32:23.911Z,27.63
2022-10-30T17:35:17.139Z,21.10
2022-10-30T17:37:44.031Z,20.13
2022-10-30T17:40:12.818Z,21.15
2022-10-30T17:42:40.733Z,28.45
2022-10-30T17:45:13.449Z,19.67
2022-10-30T17:47:40.498Z,16.10
2022-10-30T17:50:07.725Z,25.27
2022-10-30T17:52:34.931Z,24.58
2022-10-30T17:55:03.182Z,20.38
2022-10-30T17:57:30.069Z,27.60
2022-10-30T18:02:24.098Z,20.25
2022-10-30T18:04:53.241Z,21.05
2022-10-30T18:07:20.009Z,23.23
2022-10-30T18:12:17.335Z,24.20
2022-10-30T18:14:45.612Z,19.83
2022-10-30T18:17:12.779Z,21.73
2022-10-30T18:19:39.601Z,26.83
2022-10-30T18:24:33.300Z,26.40
2022-10-30T18:26:59.986Z,26.40
2022-10-30T18:29:26.737Z,29.23
2022-10-30T18:34:21.516Z,22.35
2022-10-30T18:36:49.092Z,21.67
2022-10-30T18:39:16.340Z,19.80
2022-10-30T18:41:45.304Z,20.13
2022-10-30T18:44:16.810Z,20.15
2022-10-30T18:46:44.277Z,20.48
2022-10-30T18:49:11.738Z,18.02
2022-10-30T18:51:38.716Z,17.35
2022-10-30T18:54:14.326Z,22.83
2022-10-30T18:56:41.151Z,21.20
2022-10-30T19:01:35.651Z,21.25
2022-10-30T19:04:05.428Z,16.58
2022-10-30T19:06:38.353Z,15.82
2022-10-30T19:09:05.522Z,18.52
2022-10-30T19:11:38.278Z,18.75
2022-10-30T19:14:15.394Z,19.52
2022-10-30T19:16:44.730Z,15.85
2022-10-30T19:21:38.222Z,20.90
2022-10-30T19:24:13.184Z,13.15
2022-10-30T19:26:40.090Z,10.73
2022-10-30T19:29:07.092Z,15.77
2022-10-30T19:34:25.909Z,14.55
2022-10-30T19:36:57.841Z,10.40
2022-10-30T19:39:27.173Z,14.93
2022-10-30T19:41:54.076Z,13.63
2022-10-30T19:46:51.266Z,17.63
2022-10-30T19:51:46.365Z,17.67
2022-10-30T19:54:14.697Z,22.23
2022-10-30T19:57:04.481Z,15.25
2022-10-30T19:59:33.711Z,12.40
2022-10-30T20:05:52.815Z,15.68
2022-10-30T20:11:32.157Z,17.20
2022-10-30T20:14:09.963Z,13.48
2022-10-30T20:16:39.367Z,14.38
2022-10-30T20:19:26.356Z,14.97
2022-10-30T20:21:56.055Z,16.90
2022-10-30T20:24:24.941Z,16.77
2022-10-30T20:26:53.223Z,17.67
2022-10-30T20:29:20.497Z,12.98
2022-10-30T20:31:47.429Z,14.40
2022-10-30T20:36:40.928Z,16.23
2022-10-30T20:39:11.918Z,15.18
2022-10-30T20:41:40.624Z,15.73
2022-10-30T20:44:12.100Z,16.45
2022-10-30T20:46:40.192Z,10.20
2022-10-30T20:51:45.758Z,10.55
2022-10-30T20:54:12.527Z,8.65
2022-10-30T20:56:39.360Z,7.63
2022-10-30T20:59:06.198Z,9.45
2022-10-30T21:01:33.274Z,16.55
2022-10-30T21:04:01.707Z,8.75
2022-10-30T21:06:28.858Z,10.13
2022-10-30T21:08:55.571Z,11.45
2022-10-30T21:11:22.394Z,13.63
2022-10-30T21:13:49.284Z,9.98
2022-10-30T21:16:16.357Z,10.88
2022-10-30T21:18:43.448Z,13.60
2022-10-30T21:21:13.582Z,11.52
2022-10-30T21:23:40.573Z,9.38
2022-10-30T21:28:34.479Z,14.13
2022-10-30T21:33:36.757Z,11.90
2022-10-30T21:36:12.392Z,13.65
2022-10-30T21:38:44.709Z,11.10
2022-10-30T21:41:14.640Z,14.55
2022-10-30T21:43:41.872Z,12.98
2022-10-30T21:46:10.757Z,11.73
2022-10-30T21:48:38.373Z,15.70
2022-10-30T21:51:16.408Z,14.52
2022-10-30T21:53:46.279Z,13.82
2022-10-30T21:56:20.146Z,16.38
2022-10-30T21:58:47.393Z,11.98
2022-10-30T22:01:25.691Z,8.18
2022-10-30T22:03:52.676Z,12.07
2022-10-30T22:08:52.034Z,9.30
2022-10-30T22:11:19.653Z,12.18
2022-10-30T22:13:47.367Z,9.65
2022-10-30T22:16:15.422Z,11.27
2022-10-30T22:18:42.313Z,9.32
2022-10-30T22:23:38.072Z,10.48
2022-10-30T22:26:08.074Z,10.80
2022-10-30T22:28:35.194Z,7.00
2022-10-30T22:31:06.979Z,9.13
2022-10-30T22:33:34.251Z,7.47
2022-10-30T22:36:12.529Z,14.15
2022-10-30T22:38:39.487Z,8.27
2022-10-30T22:43:33.692Z,13.05
2022-10-30T22:46:00.374Z,10.52
2022-10-30T22:48:27.151Z,12.43
2022-10-30T22:51:01.514Z,10.40
2022-10-30T22:53:30.322Z,12.70
2022-10-30T22:55:57.288Z,15.55
2022-10-30T23:00:54.041Z,9.75
2022-10-30T23:03:20.892Z,13.30
2022-10-30T23:05:59.539Z,8.32
2022-10-30T23:08:26.806Z,10.13
2022-10-30T23:10:54.413Z,10.55
2022-10-30T23:15:49.342Z,10.10
2022-10-30T23:18:16.169Z,8.85
2022-10-30T23:20:45.322Z,9.02
2022-10-30T23:23:12.706Z,10.30
2022-10-30T23:25:40.052Z,11.23
2022-10-30T23:28:08.459Z,11.07
2022-10-30T23:30:35.739Z,8.82
2022-10-30T23:33:03.015Z,15.40
2022-10-30T23:35:29.977Z,11.07
2022-10-30T23:37:56.758Z,11.32
2022-10-30T23:40:23.782Z,14.27
2022-10-30T23:45:20.315Z,11.35
2022-10-30T23:47:47.383Z,16.48
2022-10-30T23:50:14.487Z,14.70
2022-10-30T23:52:41.400Z,14.27
2022-10-30T23:57:35.371Z,12.57
